createdAt,value
2018-06-25T00:02:27.487Z,83.10
2018-06-25T00:06:30.913Z,83.10
2018-06-25T00:10:34.348Z,82.60
2018-06-25T00:14:37.772Z,83.30
2018-06-25T00:18:41.235Z,83.30
2018-06-25T00:22:44.702Z,83.40
2018-06-25T00:26:48.123Z,83.30
2018-06-25T00:30:51.559Z,83.00
2018-06-25T00:34:54.944Z,82.70
2018-06-25T00:38:58.372Z,83.10
2018-06-25T00:43:01.885Z,83.10
2018-06-25T00:47:05.734Z,82.40
2018-06-25T00:51:09.262Z,82.70
2018-06-25T00:55:12.722Z,82.50
2018-06-25T00:59:28.219Z,83.50
2018-06-25T01:03:31.606Z,82.70
2018-06-25T01:07:35.011Z,82.50
2018-06-25T01:11:38.436Z,82.80
2018-06-25T01:15:41.787Z,82.50
2018-06-25T01:19:45.224Z,82.80
2018-06-25T01:23:48.652Z,82.50
2018-06-25T01:27:52.124Z,83.60
2018-06-25T01:31:55.526Z,82.80
2018-06-25T01:35:58.904Z,82.20
2018-06-25T01:40:02.300Z,82.50
2018-06-25T01:44:05.727Z,82.80
2018-06-25T01:48:09.107Z,82.70
2018-06-25T01:52:12.514Z,83.00
2018-06-25T01:56:15.917Z,82.80
2018-06-25T02:00:19.350Z,82.50
2018-06-25T02:04:22.742Z,82.70
2018-06-25T02:08:26.159Z,82.50
2018-06-25T02:12:29.540Z,82.30
2018-06-25T02:16:32.923Z,83.60
2018-06-25T02:20:36.341Z,83.80
2018-06-25T02:24:39.703Z,83.10
2018-06-25T02:28:43.085Z,83.10
2018-06-25T02:32:47.276Z,83.30
2018-06-25T02:36:50.639Z,82.80
2018-06-25T02:40:54.016Z,83.10
2018-06-25T02:44:57.525Z,83.80
2018-06-25T02:49:00.908Z,82.60
2018-06-25T02:53:04.261Z,82.80
2018-06-25T02:57:07.673Z,83.40
2018-06-25T03:01:11.055Z,83.70
2018-06-25T03:05:14.435Z,82.80
2018-06-25T03:09:17.818Z,82.90
2018-06-25T03:13:21.196Z,82.50
2018-06-25T03:17:24.562Z,82.60
2018-06-25T03:21:28.202Z,83.10
2018-06-25T03:25:31.621Z,83.10
2018-06-25T03:29:34.979Z,83.30
2018-06-25T03:33:38.354Z,83.00
2018-06-25T03:37:41.687Z,83.00
2018-06-25T03:41:45.117Z,82.70
2018-06-25T03:45:48.496Z,83.50
2018-06-25T03:49:51.860Z,83.80
2018-06-25T03:53:55.252Z,83.00
2018-06-25T03:57:58.616Z,83.60
2018-06-25T04:02:01.990Z,82.90
2018-06-25T04:06:12.244Z,83.00
2018-06-25T04:10:15.615Z,82.60
2018-06-25T04:14:18.986Z,82.90
2018-06-25T04:18:22.384Z,82.60
2018-06-25T04:22:25.773Z,83.00
2018-06-25T04:26:29.252Z,83.40
2018-06-25T04:30:32.639Z,83.30
2018-06-25T04:34:35.993Z,82.70
2018-06-25T04:38:39.371Z,83.60
2018-06-25T04:42:42.752Z,84.10
2018-06-25T04:46:46.080Z,84.20
2018-06-25T04:50:49.430Z,83.90
2018-06-25T04:54:52.784Z,84.10
2018-06-25T04:58:56.138Z,83.70
2018-06-25T05:02:59.508Z,85.00
2018-06-25T05:07:02.842Z,83.50
2018-06-25T05:11:06.219Z,83.70
2018-06-25T05:15:09.608Z,84.40
2018-06-25T05:19:12.987Z,83.60
2018-06-25T05:23:16.308Z,85.20
2018-06-25T05:27:19.635Z,83.40
2018-06-25T05:31:23.086Z,83.60
2018-06-25T05:35:26.444Z,83.30
2018-06-25T05:39:29.786Z,83.50
2018-06-25T05:43:33.094Z,83.90
2018-06-25T05:47:36.422Z,83.50
2018-06-25T05:51:39.787Z,83.60
2018-06-25T05:55:43.146Z,82.60
2018-06-25T06:03:49.542Z,83.00
2018-06-25T06:07:52.951Z,83.00
2018-06-25T06:11:56.439Z,83.60
2018-06-25T06:16:07.106Z,83.00
2018-06-25T06:20:10.489Z,83.10
2018-06-25T06:24:13.798Z,82.50
2018-06-25T06:28:17.127Z,82.70
2018-06-25T06:32:20.460Z,83.30
2018-06-25T06:36:23.803Z,84.30
2018-06-25T06:40:27.767Z,83.20
2018-06-25T06:44:31.070Z,84.00
2018-06-25T06:48:35.023Z,83.10
2018-06-25T06:52:38.355Z,83.00
2018-06-25T06:56:41.786Z,84.00
2018-06-25T07:00:45.106Z,82.70
2018-06-25T07:04:48.473Z,83.30
2018-06-25T07:08:51.775Z,83.50
2018-06-25T07:12:55.113Z,84.00
2018-06-25T07:16:58.463Z,84.20
2018-06-25T07:21:01.840Z,83.90
2018-06-25T07:25:05.196Z,83.60
2018-06-25T07:29:08.606Z,86.60
2018-06-25T07:33:11.879Z,83.40
2018-06-25T07:37:15.207Z,85.00
2018-06-25T07:41:18.590Z,82.90
2018-06-25T07:45:21.913Z,84.00
2018-06-25T07:49:25.348Z,83.20
2018-06-25T07:53:28.805Z,84.10
2018-06-25T07:57:32.089Z,83.20
2018-06-25T08:01:35.447Z,83.30
2018-06-25T08:05:38.806Z,83.40
2018-06-25T08:09:42.126Z,84.10
2018-06-25T08:13:45.447Z,83.00
2018-06-25T08:17:48.863Z,83.40
2018-06-25T08:21:52.235Z,83.50
2018-06-25T08:25:56.096Z,83.40
2018-06-25T08:29:59.491Z,83.10
2018-06-25T08:34:02.789Z,83.70
2018-06-25T08:42:09.562Z,83.60
2018-06-25T08:46:12.903Z,82.80
2018-06-25T08:50:16.396Z,84.40
2018-06-25T08:54:19.759Z,84.20
2018-06-25T08:58:23.081Z,83.40
2018-06-25T09:02:26.444Z,84.60
2018-06-25T09:06:29.759Z,83.60
2018-06-25T09:10:33.126Z,83.00
2018-06-25T09:14:36.499Z,83.70
2018-06-25T09:18:40.843Z,84.00
2018-06-25T09:22:44.223Z,83.00
2018-06-25T09:26:47.565Z,83.70
2018-06-25T09:30:50.890Z,82.90
2018-06-25T09:34:54.342Z,82.70
2018-06-25T09:38:57.713Z,82.60
2018-06-25T09:43:01.079Z,82.80
2018-06-25T09:47:04.498Z,83.30
2018-06-25T09:51:07.782Z,83.00
2018-06-25T09:55:11.127Z,82.50
2018-06-25T09:59:14.838Z,82.30
2018-06-25T10:03:18.182Z,82.10
2018-06-25T10:07:21.504Z,82.00
2018-06-25T10:11:24.867Z,82.10
2018-06-25T10:15:28.187Z,81.80
2018-06-25T10:19:31.566Z,82.10
2018-06-25T10:23:34.930Z,82.00
2018-06-25T10:27:38.318Z,81.60
2018-06-25T10:31:41.827Z,81.20
2018-06-25T10:35:45.379Z,81.70
2018-06-25T10:39:48.729Z,81.50
2018-06-25T10:43:52.132Z,81.40
2018-06-25T10:47:55.503Z,80.90
2018-06-25T10:51:58.854Z,81.60
2018-06-25T10:56:02.250Z,81.60
2018-06-25T11:00:06.619Z,81.60
2018-06-25T11:04:09.753Z,81.20
2018-06-25T11:08:13.137Z,81.60
2018-06-25T11:12:16.499Z,81.10
2018-06-25T11:16:19.866Z,80.80
2018-06-25T11:20:23.291Z,80.80
2018-06-25T11:24:26.956Z,81.20
2018-06-25T11:28:30.378Z,80.70
2018-06-25T11:32:33.794Z,80.80
2018-06-25T11:36:37.155Z,78.50
2018-06-25T11:44:44.303Z,81.00
2018-06-25T11:48:47.680Z,79.20
2018-06-25T11:52:51.038Z,80.40
2018-06-25T11:56:54.674Z,79.50
2018-06-25T12:00:58.102Z,80.90
2018-06-25T12:05:01.459Z,81.10
2018-06-25T12:09:07.163Z,80.60
2018-06-25T12:13:10.511Z,81.00
2018-06-25T12:17:13.893Z,79.90
2018-06-25T12:21:17.303Z,80.60
2018-06-25T12:25:21.170Z,80.20
2018-06-25T12:29:24.535Z,80.50
2018-06-25T12:33:27.870Z,80.30
2018-06-25T12:37:31.256Z,80.40
2018-06-25T12:41:34.639Z,79.80
2018-06-25T12:45:38.006Z,80.00
2018-06-25T12:49:41.417Z,78.80
2018-06-25T12:53:44.886Z,80.20
2018-06-25T12:57:48.234Z,80.20
2018-06-25T13:01:51.643Z,79.30
2018-06-25T13:05:54.992Z,79.40
2018-06-25T13:09:58.350Z,79.70
2018-06-25T13:14:01.673Z,79.30
2018-06-25T13:18:05.105Z,79.40
2018-06-25T13:22:08.534Z,79.10
2018-06-25T13:26:11.920Z,79.20
2018-06-25T13:30:15.306Z,74.40
2018-06-25T13:34:18.652Z,78.40
2018-06-25T13:38:22.017Z,79.30
2018-06-25T13:42:25.392Z,79.40
2018-06-25T13:46:28.799Z,79.50
2018-06-25T13:50:32.187Z,76.90
2018-06-25T13:54:35.565Z,75.50
2018-06-25T13:58:41.238Z,77.00
2018-06-25T14:02:44.568Z,78.10
2018-06-25T14:06:47.899Z,77.70
2018-06-25T14:10:51.246Z,78.30
2018-06-25T14:14:54.631Z,78.80
2018-06-25T14:18:57.967Z,77.50
2018-06-25T14:23:01.331Z,79.20
2018-06-25T14:27:09.696Z,78.80
2018-06-25T14:31:18.451Z,76.40
2018-06-25T14:35:28.139Z,74.80
2018-06-25T14:39:31.466Z,76.20
2018-06-25T14:43:35.471Z,77.20
2018-06-25T14:47:38.815Z,77.40
2018-06-25T14:51:42.268Z,77.60
2018-06-25T14:55:45.602Z,77.10
2018-06-25T14:59:49.046Z,76.90
2018-06-25T15:03:52.385Z,77.50
2018-06-25T15:07:55.719Z,77.90
2018-06-25T15:11:59.161Z,76.60
2018-06-25T15:16:02.475Z,77.50
2018-06-25T15:20:05.860Z,77.50
2018-06-25T15:24:09.206Z,76.50
2018-06-25T15:28:12.532Z,76.20
2018-06-25T15:32:15.905Z,76.40
2018-06-25T15:36:19.239Z,77.20
2018-06-25T15:40:22.597Z,76.90
2018-06-25T15:44:26.015Z,77.70
2018-06-25T15:48:29.338Z,76.20
2018-06-25T15:52:32.700Z,76.90
2018-06-25T15:56:36.111Z,75.00
2018-06-25T16:00:39.411Z,76.70
2018-06-25T16:04:42.808Z,77.30
2018-06-25T16:08:46.163Z,77.20
2018-06-25T16:12:49.538Z,77.60
2018-06-25T16:16:52.891Z,76.70
2018-06-25T16:20:56.251Z,78.30
2018-06-25T16:24:59.627Z,75.40
2018-06-25T16:29:02.991Z,78.60
2018-06-25T16:33:06.381Z,79.00
2018-06-25T16:37:09.754Z,76.50
2018-06-25T16:41:13.066Z,73.30
2018-06-25T16:45:16.398Z,70.80
2018-06-25T16:49:19.736Z,74.00
2018-06-25T16:53:23.095Z,71.10
2018-06-25T16:57:26.470Z,75.00
2018-06-25T17:01:29.835Z,76.10
2018-06-25T17:05:33.158Z,74.50
2018-06-25T17:09:36.510Z,73.30
2018-06-25T17:13:39.866Z,76.50
2018-06-25T17:17:43.193Z,75.40
2018-06-25T17:21:46.629Z,72.20
2018-06-25T17:25:50.075Z,73.80
2018-06-25T17:29:53.430Z,74.20
2018-06-25T17:33:56.852Z,75.40
2018-06-25T17:38:00.182Z,75.30
2018-06-25T17:42:03.539Z,75.30
2018-06-25T17:46:07.031Z,74.40
2018-06-25T17:50:10.375Z,74.70
2018-06-25T17:54:13.795Z,73.50
2018-06-25T17:58:17.174Z,73.70
2018-06-25T18:02:20.602Z,73.20
2018-06-25T18:06:23.952Z,73.40
2018-06-25T18:10:27.275Z,74.60
2018-06-25T18:14:30.606Z,72.50
2018-06-25T18:18:33.978Z,72.90
2018-06-25T18:22:37.410Z,75.10
2018-06-25T18:26:40.953Z,75.60
2018-06-25T18:30:45.462Z,75.30
2018-06-25T18:34:49.059Z,75.00
2018-06-25T18:38:52.404Z,74.80
2018-06-25T18:42:55.792Z,74.20
2018-06-25T18:46:59.269Z,74.20
2018-06-25T18:51:02.633Z,75.90
2018-06-25T18:55:06.312Z,75.10
2018-06-25T18:59:09.635Z,75.80
2018-06-25T19:03:12.995Z,76.30
2018-06-25T19:07:16.435Z,75.60
2018-06-25T19:15:22.903Z,76.40
2018-06-25T19:19:26.259Z,76.10
2018-06-25T19:23:29.636Z,76.60
2018-06-25T19:27:33.470Z,76.70
2018-06-25T19:31:36.875Z,76.70
2018-06-25T19:36:01.789Z,76.50
2018-06-25T19:40:05.507Z,76.90
2018-06-25T19:44:09.527Z,77.10
2018-06-25T19:48:12.830Z,77.20
2018-06-25T19:52:16.196Z,77.30
2018-06-25T19:56:19.570Z,77.30
2018-06-25T20:00:22.945Z,77.40
2018-06-25T20:04:26.314Z,77.50
2018-06-25T20:08:29.801Z,77.60
2018-06-25T20:12:33.265Z,77.80
2018-06-25T20:16:36.781Z,77.70
2018-06-25T20:20:40.495Z,77.90
2018-06-25T20:24:43.887Z,77.90
2018-06-25T20:28:47.258Z,78.60
2018-06-25T20:32:50.709Z,78.60
2018-06-25T20:36:54.478Z,78.20
2018-06-25T20:40:59.335Z,78.40
2018-06-25T20:45:02.788Z,78.30
2018-06-25T20:49:06.243Z,78.60
2018-06-25T20:53:09.688Z,79.00
2018-06-25T20:57:13.055Z,78.50
2018-06-25T21:01:16.512Z,78.90
2018-06-25T21:05:19.959Z,78.90
2018-06-25T21:13:26.491Z,79.20
2018-06-25T21:17:30.920Z,79.10
2018-06-25T21:21:34.317Z,79.20
2018-06-25T21:25:37.729Z,78.80
2018-06-25T21:29:41.187Z,79.20
2018-06-25T21:33:44.600Z,79.20
2018-06-25T21:37:48.040Z,79.20
2018-06-25T21:41:51.518Z,79.10
2018-06-25T21:45:55.041Z,79.60
2018-06-25T21:49:58.495Z,79.00
2018-06-25T21:54:01.957Z,79.80
2018-06-25T21:58:05.439Z,80.20
2018-06-25T22:02:08.924Z,79.40
2018-06-25T22:06:13.501Z,79.50
2018-06-25T22:10:17.058Z,79.20
2018-06-25T22:14:20.529Z,79.30
2018-06-25T22:18:23.943Z,78.90
2018-06-25T22:22:27.419Z,79.30
2018-06-25T22:26:46.003Z,79.00
2018-06-25T22:30:51.016Z,80.00
2018-06-25T22:34:54.463Z,79.50
2018-06-25T22:38:57.863Z,79.30
2018-06-25T22:43:01.332Z,80.80
2018-06-25T22:47:04.775Z,80.20
2018-06-25T22:51:08.256Z,80.10
2018-06-25T22:55:11.711Z,80.20
2018-06-25T22:59:15.190Z,80.90
2018-06-25T23:03:18.613Z,80.60
2018-06-25T23:07:22.081Z,79.70
2018-06-25T23:11:25.512Z,80.00
2018-06-25T23:15:28.960Z,80.90
2018-06-25T23:19:32.386Z,79.80
2018-06-25T23:23:35.792Z,80.40
2018-06-25T23:27:39.192Z,80.40
2018-06-25T23:31:42.584Z,80.10
2018-06-25T23:35:45.998Z,80.00
2018-06-25T23:39:49.384Z,81.60
2018-06-25T23:43:52.816Z,80.00
2018-06-25T23:47:56.247Z,79.80
2018-06-25T23:51:59.756Z,80.20
2018-06-25T23:56:03.187Z,80.50
